createdAt,value
2023-05-19T00:01:20.379Z,80.12
2023-05-19T00:03:59.107Z,80.24
2023-05-19T00:06:29.355Z,80.26
2023-05-19T00:09:00.272Z,80.17
2023-05-19T00:11:28.496Z,80.33
2023-05-19T00:13:57.326Z,80.41
2023-05-19T00:16:26.040Z,80.43
2023-05-19T00:18:54.329Z,80.30
2023-05-19T00:21:21.223Z,80.28
2023-05-19T00:23:48.315Z,80.23
2023-05-19T00:26:15.362Z,80.40
2023-05-19T00:28:45.196Z,80.27
2023-05-19T00:31:12.062Z,80.36
2023-05-19T00:33:39.073Z,80.42
2023-05-19T00:36:06.297Z,80.74
2023-05-19T00:38:35.374Z,80.71
2023-05-19T00:41:03.764Z,80.57
2023-05-19T00:43:30.766Z,80.58
2023-05-19T00:45:58.013Z,80.35
2023-05-19T00:48:26.548Z,80.49
2023-05-19T00:50:55.176Z,80.59
2023-05-19T00:53:23.437Z,80.56
2023-05-19T00:55:51.276Z,80.78
2023-05-19T00:58:19.258Z,80.91
2023-05-19T01:00:46.449Z,80.72
2023-05-19T01:03:13.483Z,80.48
2023-05-19T01:05:42.515Z,80.36
2023-05-19T01:08:09.633Z,80.32
2023-05-19T01:10:37.258Z,80.49
2023-05-19T01:13:06.604Z,80.50
2023-05-19T01:15:41.770Z,80.51
2023-05-19T01:18:14.359Z,80.50
2023-05-19T01:20:47.450Z,80.55
2023-05-19T01:23:28.921Z,80.50
2023-05-19T01:26:04.837Z,80.71
2023-05-19T01:28:48.738Z,80.67
2023-05-19T01:31:18.909Z,80.72
2023-05-19T01:33:47.691Z,80.79
2023-05-19T01:36:15.478Z,80.54
2023-05-19T01:38:44.345Z,80.53
2023-05-19T01:41:12.514Z,80.51
2023-05-19T01:43:40.855Z,80.65
2023-05-19T01:46:08.574Z,80.81
2023-05-19T01:48:36.132Z,81.06
2023-05-19T01:51:03.107Z,80.83
2023-05-19T01:53:30.008Z,80.94
2023-05-19T01:55:57.599Z,80.77
2023-05-19T01:58:37.864Z,80.63
2023-05-19T02:01:08.163Z,80.48
2023-05-19T02:03:46.139Z,80.55
2023-05-19T02:06:28.697Z,80.79
2023-05-19T02:08:58.354Z,80.85
2023-05-19T02:11:25.207Z,80.92
2023-05-19T02:13:56.964Z,80.76
2023-05-19T02:16:28.873Z,80.80
2023-05-19T02:18:56.607Z,80.53
2023-05-19T02:21:23.573Z,80.64
2023-05-19T02:23:50.821Z,80.58
2023-05-19T02:26:19.986Z,80.70
2023-05-19T02:28:46.945Z,80.90
2023-05-19T02:31:14.059Z,80.94
2023-05-19T02:33:41.470Z,80.81
2023-05-19T02:36:10.160Z,80.75
2023-05-19T02:38:37.727Z,80.54
2023-05-19T02:41:04.585Z,80.73
2023-05-19T02:43:31.620Z,80.66
2023-05-19T02:45:58.480Z,80.57
2023-05-19T02:48:26.693Z,80.37
2023-05-19T02:50:53.624Z,80.40
2023-05-19T02:53:20.504Z,80.34
2023-05-19T02:55:47.387Z,80.14
2023-05-19T02:58:14.448Z,80.31
2023-05-19T03:00:41.394Z,80.43
2023-05-19T03:03:10.560Z,80.72
2023-05-19T03:05:37.755Z,80.79
2023-05-19T03:08:04.771Z,80.99
2023-05-19T03:10:31.792Z,80.88
2023-05-19T03:12:58.930Z,80.87
2023-05-19T03:15:25.837Z,80.93
2023-05-19T03:17:52.791Z,81.09
2023-05-19T03:20:19.946Z,81.23
2023-05-19T03:22:46.866Z,81.12
2023-05-19T03:25:13.999Z,81.15
2023-05-19T03:27:42.458Z,81.08
2023-05-19T03:30:13.786Z,80.88
2023-05-19T03:32:52.709Z,81.15
2023-05-19T03:35:19.877Z,81.21
2023-05-19T03:37:46.802Z,81.49
2023-05-19T03:40:14.308Z,81.43
2023-05-19T03:42:42.157Z,81.41
2023-05-19T03:45:09.272Z,81.47
2023-05-19T03:47:36.212Z,81.31
2023-05-19T03:50:23.443Z,80.96
2023-05-19T03:52:56.676Z,80.77
2023-05-19T03:55:31.517Z,80.31
2023-05-19T03:57:58.410Z,80.14
2023-05-19T04:00:25.331Z,80.40
2023-05-19T04:02:52.410Z,81.02
2023-05-19T04:05:19.323Z,81.31
2023-05-19T04:07:46.925Z,81.17
2023-05-19T04:10:14.367Z,80.98
2023-05-19T04:12:41.263Z,81.19
2023-05-19T04:15:11.588Z,81.36
2023-05-19T04:17:39.561Z,81.34
2023-05-19T04:20:07.053Z,81.01
2023-05-19T04:22:34.167Z,80.47
2023-05-19T04:25:01.828Z,79.55
2023-05-19T04:27:30.160Z,79.75
2023-05-19T04:29:58.244Z,80.86
2023-05-19T04:32:25.970Z,81.33
2023-05-19T04:34:53.401Z,81.24
2023-05-19T04:37:24.293Z,80.91
2023-05-19T04:39:53.666Z,80.66
2023-05-19T04:42:22.492Z,80.37
2023-05-19T04:44:51.872Z,79.86
2023-05-19T04:47:21.646Z,79.50
2023-05-19T04:49:48.865Z,79.36
2023-05-19T04:52:16.244Z,79.42
2023-05-19T04:54:43.128Z,79.51
2023-05-19T04:57:12.274Z,79.42
2023-05-19T04:59:39.763Z,79.00
2023-05-19T05:02:08.529Z,78.39
2023-05-19T05:04:36.887Z,77.75
2023-05-19T05:07:03.980Z,78.53
2023-05-19T05:09:31.085Z,79.18
2023-05-19T05:11:59.260Z,79.26
2023-05-19T05:14:26.703Z,79.35
2023-05-19T05:16:54.037Z,79.06
2023-05-19T05:19:23.802Z,78.91
2023-05-19T05:21:52.154Z,78.20
2023-05-19T05:24:20.282Z,77.70
2023-05-19T05:26:51.249Z,77.59
2023-05-19T05:29:18.268Z,78.27
2023-05-19T05:31:45.237Z,78.62
2023-05-19T05:34:12.244Z,78.70
2023-05-19T05:36:39.447Z,78.60
2023-05-19T05:39:08.295Z,78.02
2023-05-19T05:41:36.169Z,77.34
2023-05-19T05:44:08.231Z,76.80
2023-05-19T05:46:35.453Z,76.24
2023-05-19T05:49:03.393Z,76.36
2023-05-19T05:51:32.995Z,76.69
2023-05-19T05:54:01.213Z,76.80
2023-05-19T05:56:33.998Z,76.44
2023-05-19T05:59:02.209Z,76.29
2023-05-19T06:01:31.869Z,76.18
2023-05-19T06:04:00.067Z,75.95
2023-05-19T06:06:27.070Z,75.72
2023-05-19T06:08:55.101Z,75.33
2023-05-19T06:11:23.184Z,75.03
2023-05-19T06:13:51.230Z,74.88
2023-05-19T06:16:35.913Z,75.07
2023-05-19T06:19:02.876Z,75.02
2023-05-19T06:21:29.851Z,75.25
2023-05-19T06:23:56.781Z,74.63
2023-05-19T06:26:24.204Z,74.32
2023-05-19T06:28:51.509Z,74.92
2023-05-19T06:31:18.460Z,74.53
2023-05-19T06:33:50.892Z,74.15
2023-05-19T06:36:17.983Z,74.19
2023-05-19T06:38:46.969Z,73.70
2023-05-19T06:41:14.324Z,73.17
2023-05-19T06:43:42.657Z,72.85
2023-05-19T06:46:14.228Z,73.65
2023-05-19T06:48:43.683Z,74.21
2023-05-19T06:51:11.642Z,74.47
2023-05-19T06:53:39.513Z,74.12
2023-05-19T06:56:08.363Z,73.62
2023-05-19T06:58:36.253Z,72.82
2023-05-19T07:01:04.551Z,72.76
2023-05-19T07:03:35.570Z,73.14
2023-05-19T07:06:05.061Z,72.85
2023-05-19T07:08:33.444Z,72.49
2023-05-19T07:11:01.445Z,72.75
2023-05-19T07:13:28.706Z,72.76
2023-05-19T07:15:55.977Z,72.54
2023-05-19T07:18:23.439Z,72.24
2023-05-19T07:20:53.961Z,72.13
2023-05-19T07:23:21.157Z,71.84
2023-05-19T07:25:49.254Z,70.66
2023-05-19T07:28:16.324Z,70.87
2023-05-19T07:30:43.499Z,70.86
2023-05-19T07:33:10.537Z,70.08
2023-05-19T07:35:37.616Z,70.09
2023-05-19T07:38:04.666Z,69.45
2023-05-19T07:40:31.679Z,69.12
2023-05-19T07:42:58.766Z,69.61
2023-05-19T07:45:26.020Z,69.51
2023-05-19T07:47:54.097Z,69.76
2023-05-19T07:50:20.984Z,69.97
2023-05-19T07:52:47.825Z,70.01
2023-05-19T07:55:15.133Z,69.92
2023-05-19T07:57:41.936Z,69.93
2023-05-19T08:00:13.593Z,70.48
2023-05-19T08:02:41.448Z,70.06
2023-05-19T08:05:09.396Z,70.37
2023-05-19T08:07:36.949Z,70.26
2023-05-19T08:10:04.654Z,70.40
2023-05-19T08:12:31.469Z,70.54
2023-05-19T08:15:00.990Z,69.75
2023-05-19T08:17:28.490Z,69.26
2023-05-19T08:19:55.333Z,69.20
2023-05-19T08:22:22.237Z,68.93
2023-05-19T08:24:49.982Z,68.38
2023-05-19T08:27:16.955Z,67.39
2023-05-19T08:29:44.237Z,67.28
2023-05-19T08:32:13.191Z,67.58
2023-05-19T08:34:41.415Z,67.98
2023-05-19T08:37:08.336Z,67.63
2023-05-19T08:39:35.338Z,67.36
2023-05-19T08:42:02.560Z,67.18
2023-05-19T08:44:30.983Z,67.05
2023-05-19T08:47:02.939Z,66.93
2023-05-19T08:49:33.291Z,66.11
2023-05-19T08:52:14.461Z,65.43
2023-05-19T08:54:50.977Z,64.72
2023-05-19T08:57:19.394Z,64.33
2023-05-19T08:59:46.288Z,64.75
2023-05-19T09:02:14.549Z,64.12
2023-05-19T09:04:46.024Z,63.87
2023-05-19T09:07:14.627Z,64.42
2023-05-19T09:09:43.968Z,64.48
2023-05-19T09:12:11.847Z,64.42
2023-05-19T09:14:38.736Z,64.58
2023-05-19T09:17:06.576Z,64.31
2023-05-19T09:19:33.595Z,64.75
2023-05-19T09:22:03.266Z,64.61
2023-05-19T09:24:30.648Z,65.28
2023-05-19T09:26:58.527Z,64.44
2023-05-19T09:29:26.821Z,64.52
2023-05-19T09:31:56.208Z,65.04
2023-05-19T09:34:25.529Z,65.88
2023-05-19T09:36:54.092Z,66.06
2023-05-19T09:39:23.295Z,65.45
2023-05-19T09:41:53.909Z,64.86
2023-05-19T09:44:21.297Z,65.09
2023-05-19T09:46:50.709Z,66.03
2023-05-19T09:49:21.188Z,66.23
2023-05-19T09:51:50.870Z,66.10
2023-05-19T09:54:20.591Z,65.71
2023-05-19T09:56:53.290Z,65.63
2023-05-19T09:59:24.087Z,65.23
2023-05-19T10:01:55.014Z,65.35
2023-05-19T10:04:23.715Z,65.83
2023-05-19T10:06:54.505Z,65.02
2023-05-19T10:09:25.114Z,65.00
2023-05-19T10:11:54.757Z,65.22
2023-05-19T10:14:24.601Z,64.48
2023-05-19T10:16:53.204Z,64.59
2023-05-19T10:19:24.893Z,64.75
2023-05-19T10:21:52.701Z,63.73
2023-05-19T10:24:21.477Z,64.32
2023-05-19T10:26:58.672Z,64.29
2023-05-19T10:29:30.303Z,64.60
2023-05-19T10:32:01.275Z,64.47
2023-05-19T10:34:59.415Z,64.73
2023-05-19T10:37:45.681Z,64.15
2023-05-19T10:40:21.925Z,64.44
2023-05-19T10:43:07.737Z,65.31
2023-05-19T10:45:46.119Z,65.95
2023-05-19T10:48:16.036Z,65.00
2023-05-19T10:50:46.251Z,64.30
2023-05-19T10:53:18.275Z,64.30
2023-05-19T10:56:04.342Z,63.79
2023-05-19T10:58:46.601Z,63.72
2023-05-19T11:01:16.618Z,64.34
2023-05-19T11:03:54.130Z,64.25
2023-05-19T11:06:38.294Z,63.57
2023-05-19T11:09:31.125Z,62.13
2023-05-19T11:12:05.247Z,61.21
2023-05-19T11:14:32.755Z,60.39
2023-05-19T11:17:00.646Z,60.75
2023-05-19T11:19:30.074Z,60.86
2023-05-19T11:22:07.706Z,59.95
2023-05-19T11:24:36.774Z,59.07
2023-05-19T11:27:28.443Z,58.87
2023-05-19T11:29:59.273Z,59.51
2023-05-19T11:32:29.488Z,59.16
2023-05-19T11:34:57.874Z,58.93
2023-05-19T11:37:25.177Z,58.87
2023-05-19T11:39:53.332Z,58.70
2023-05-19T11:42:20.667Z,58.90
2023-05-19T11:44:48.034Z,58.92
2023-05-19T11:47:16.042Z,58.01
2023-05-19T11:49:45.990Z,58.64
2023-05-19T11:52:13.292Z,57.77
2023-05-19T11:54:42.088Z,58.35
2023-05-19T11:57:11.670Z,58.00
2023-05-19T11:59:40.730Z,57.83
2023-05-19T12:02:18.079Z,57.78
2023-05-19T12:04:45.582Z,57.79
2023-05-19T12:07:13.846Z,57.47
2023-05-19T12:09:40.683Z,57.89
2023-05-19T12:12:07.896Z,58.40
2023-05-19T12:14:35.932Z,58.20
2023-05-19T12:17:14.704Z,58.18
2023-05-19T12:19:43.762Z,57.96
2023-05-19T12:22:12.756Z,57.57
2023-05-19T12:24:40.401Z,57.76
2023-05-19T12:27:13.160Z,58.49
2023-05-19T12:29:41.488Z,58.50
2023-05-19T12:32:09.638Z,57.73
2023-05-19T12:34:38.318Z,58.15
2023-05-19T12:37:06.285Z,58.35
2023-05-19T12:39:34.035Z,58.44
2023-05-19T12:42:09.597Z,59.17
2023-05-19T12:44:46.956Z,59.00
2023-05-19T12:47:16.149Z,59.01
2023-05-19T12:49:59.825Z,59.30
2023-05-19T12:52:29.104Z,59.54
2023-05-19T12:55:06.698Z,60.09
2023-05-19T12:57:36.291Z,60.72
2023-05-19T13:00:14.167Z,60.08
2023-05-19T13:03:05.974Z,59.73
2023-05-19T13:05:38.078Z,59.93
2023-05-19T13:08:07.865Z,60.72
2023-05-19T13:10:36.504Z,60.52
2023-05-19T13:13:04.317Z,60.33
2023-05-19T13:15:34.682Z,60.51
2023-05-19T13:18:03.895Z,61.13
2023-05-19T13:20:31.408Z,60.91
2023-05-19T13:22:58.672Z,60.66
2023-05-19T13:25:26.473Z,60.16
2023-05-19T13:27:54.534Z,60.55
2023-05-19T13:30:22.085Z,61.22
2023-05-19T13:32:48.883Z,60.91
2023-05-19T13:35:16.008Z,61.21
2023-05-19T13:37:50.343Z,61.11
2023-05-19T13:40:17.723Z,61.47
2023-05-19T13:42:45.537Z,60.85
2023-05-19T13:45:12.385Z,60.36
2023-05-19T13:47:39.188Z,61.29
2023-05-19T13:50:06.666Z,61.08
2023-05-19T13:52:33.881Z,61.44
2023-05-19T13:55:00.873Z,61.63
2023-05-19T13:57:27.634Z,61.77
2023-05-19T14:00:02.409Z,61.11
2023-05-19T14:02:39.833Z,61.43
2023-05-19T14:05:07.726Z,61.92
2023-05-19T14:07:35.349Z,62.07
2023-05-19T14:10:03.926Z,62.58
2023-05-19T14:12:43.162Z,62.37
2023-05-19T14:15:17.867Z,62.09
2023-05-19T14:17:44.830Z,62.21
2023-05-19T14:20:12.148Z,63.24
2023-05-19T14:22:39.008Z,63.41
2023-05-19T14:25:06.499Z,63.60
2023-05-19T14:27:33.296Z,63.45
2023-05-19T14:30:00.230Z,63.31
2023-05-19T14:32:30.119Z,63.83
2023-05-19T14:34:57.357Z,63.78
2023-05-19T14:37:26.683Z,63.67
2023-05-19T14:39:53.750Z,63.67
2023-05-19T14:42:20.759Z,63.80
2023-05-19T14:44:47.795Z,63.76
2023-05-19T14:47:14.744Z,64.11
2023-05-19T14:49:41.696Z,64.06
2023-05-19T14:52:08.602Z,64.91
2023-05-19T14:54:35.430Z,65.58
2023-05-19T14:57:03.033Z,65.41
2023-05-19T14:59:29.937Z,64.92
2023-05-19T15:01:56.685Z,64.67
2023-05-19T15:04:23.679Z,65.26
2023-05-19T15:07:02.067Z,65.48
2023-05-19T15:09:36.540Z,65.36
2023-05-19T15:12:03.611Z,65.46
2023-05-19T15:14:31.185Z,65.34
2023-05-19T15:16:58.838Z,65.20
2023-05-19T15:19:26.508Z,65.35
2023-05-19T15:21:53.690Z,65.59
2023-05-19T15:24:20.573Z,65.74
2023-05-19T15:26:47.667Z,66.18
2023-05-19T15:29:14.603Z,66.70
2023-05-19T15:31:41.666Z,66.59
2023-05-19T15:34:08.853Z,67.06
2023-05-19T15:36:35.715Z,67.66
2023-05-19T15:39:03.925Z,67.65
2023-05-19T15:41:31.072Z,67.44
2023-05-19T15:44:00.326Z,67.83
2023-05-19T15:46:28.204Z,67.69
2023-05-19T15:48:55.392Z,68.06
2023-05-19T15:51:22.603Z,67.97
2023-05-19T15:53:49.593Z,68.04
2023-05-19T15:56:19.762Z,68.14
2023-05-19T15:58:46.604Z,67.96
2023-05-19T16:01:14.879Z,68.35
2023-05-19T16:03:41.905Z,68.77
2023-05-19T16:06:09.119Z,68.86
2023-05-19T16:08:36.549Z,68.68
2023-05-19T16:11:04.398Z,68.30
2023-05-19T16:13:33.556Z,68.83
2023-05-19T16:16:01.161Z,68.80
2023-05-19T16:18:29.571Z,69.07
2023-05-19T16:20:56.713Z,69.14
2023-05-19T16:23:24.805Z,69.49
2023-05-19T16:25:51.722Z,70.00
2023-05-19T16:28:18.544Z,70.12
2023-05-19T16:30:46.245Z,70.12
2023-05-19T16:33:13.216Z,70.01
2023-05-19T16:35:40.057Z,69.69
2023-05-19T16:38:06.849Z,69.62
2023-05-19T16:40:34.246Z,70.11
2023-05-19T16:43:01.349Z,70.56
2023-05-19T16:45:28.370Z,70.86
2023-05-19T16:47:55.515Z,71.22
2023-05-19T16:50:22.441Z,71.27
2023-05-19T16:52:49.277Z,71.63
2023-05-19T16:55:19.815Z,72.09
2023-05-19T16:57:47.289Z,72.34
2023-05-19T17:00:14.992Z,72.89
2023-05-19T17:02:42.252Z,72.90
2023-05-19T17:05:09.821Z,72.84
2023-05-19T17:07:36.690Z,72.77
2023-05-19T17:10:03.764Z,73.07
2023-05-19T17:12:30.629Z,73.32
2023-05-19T17:14:57.515Z,73.56
2023-05-19T17:17:24.321Z,73.71
2023-05-19T17:19:51.092Z,73.71
2023-05-19T17:22:17.982Z,73.88
2023-05-19T17:24:45.279Z,74.25
2023-05-19T17:27:12.084Z,74.11
2023-05-19T17:29:38.836Z,74.42
2023-05-19T17:32:05.862Z,74.34
2023-05-19T17:34:32.674Z,74.35
2023-05-19T17:36:59.543Z,74.36
2023-05-19T17:39:26.994Z,74.38
2023-05-19T17:42:01.111Z,74.58
2023-05-19T17:45:20.809Z,74.76
2023-05-19T17:47:47.853Z,75.00
2023-05-19T17:50:14.719Z,75.04
2023-05-19T17:52:42.061Z,75.27
2023-05-19T17:55:09.690Z,75.35
2023-05-19T17:57:40.247Z,75.58
2023-05-19T18:00:07.835Z,75.70
2023-05-19T18:02:35.534Z,75.67
2023-05-19T18:05:03.173Z,75.79
2023-05-19T18:07:32.740Z,75.61
2023-05-19T18:10:01.340Z,75.84
2023-05-19T18:12:28.112Z,76.10
2023-05-19T18:14:54.875Z,76.13
2023-05-19T18:17:21.940Z,76.27
2023-05-19T18:19:49.525Z,76.34
2023-05-19T18:22:17.687Z,76.21
2023-05-19T18:24:44.564Z,76.60
2023-05-19T18:27:11.366Z,76.58
2023-05-19T18:29:38.497Z,76.70
2023-05-19T18:32:06.934Z,76.79
2023-05-19T18:34:33.951Z,77.04
2023-05-19T18:37:00.795Z,77.21
2023-05-19T18:39:29.242Z,77.12
2023-05-19T18:41:56.327Z,77.29
2023-05-19T18:44:23.224Z,77.35
2023-05-19T18:46:50.041Z,77.48
2023-05-19T18:49:17.279Z,77.56
2023-05-19T18:51:44.156Z,77.66
2023-05-19T18:54:12.449Z,77.62
2023-05-19T18:56:39.361Z,77.82
2023-05-19T18:59:06.386Z,77.67
2023-05-19T19:01:33.263Z,77.64
2023-05-19T19:04:00.911Z,77.64
2023-05-19T19:06:28.128Z,77.67
2023-05-19T19:08:54.899Z,77.58
2023-05-19T19:11:37.250Z,77.73
2023-05-19T19:14:04.237Z,77.86
2023-05-19T19:16:31.205Z,77.87
2023-05-19T19:18:58.203Z,77.91
2023-05-19T19:21:25.867Z,78.27
2023-05-19T19:23:54.831Z,78.23
2023-05-19T19:26:25.116Z,78.34
2023-05-19T19:28:51.952Z,78.41
2023-05-19T19:31:18.855Z,78.24
2023-05-19T19:33:45.880Z,78.36
2023-05-19T19:36:12.776Z,78.46
2023-05-19T19:38:39.770Z,78.26
2023-05-19T19:41:06.655Z,78.15
2023-05-19T19:43:33.755Z,78.21
2023-05-19T19:46:02.696Z,77.87
2023-05-19T19:48:29.898Z,78.04
2023-05-19T19:50:58.533Z,78.07
2023-05-19T19:53:25.498Z,78.08
2023-05-19T19:55:57.812Z,78.25
2023-05-19T19:58:24.969Z,78.68
2023-05-19T20:01:00.739Z,78.75
2023-05-19T20:03:27.932Z,78.88
2023-05-19T20:05:56.689Z,78.85
2023-05-19T20:08:24.636Z,78.75
2023-05-19T20:10:51.779Z,78.90
2023-05-19T20:13:19.306Z,79.01
2023-05-19T20:15:46.874Z,79.04
2023-05-19T20:18:13.896Z,78.99
2023-05-19T20:20:41.554Z,79.14
2023-05-19T20:23:09.086Z,79.20
2023-05-19T20:25:54.435Z,79.42
2023-05-19T20:28:28.707Z,78.96
2023-05-19T20:30:55.592Z,78.62
2023-05-19T20:33:22.425Z,78.74
2023-05-19T20:35:49.238Z,78.79
2023-05-19T20:38:16.125Z,79.11
2023-05-19T20:40:42.941Z,79.38
2023-05-19T20:43:09.843Z,79.30
2023-05-19T20:45:36.793Z,79.50
2023-05-19T20:48:04.309Z,79.18
2023-05-19T20:50:32.214Z,78.89
2023-05-19T20:52:59.189Z,79.23
2023-05-19T20:55:26.078Z,79.46
2023-05-19T20:57:52.898Z,79.67
2023-05-19T21:00:19.986Z,79.81
2023-05-19T21:02:46.879Z,79.99
2023-05-19T21:05:13.821Z,80.35
2023-05-19T21:07:40.673Z,80.14
2023-05-19T21:10:10.431Z,79.89
2023-05-19T21:12:37.262Z,79.82
2023-05-19T21:15:06.022Z,79.88
2023-05-19T21:17:32.965Z,80.30
2023-05-19T21:20:00.493Z,80.05
2023-05-19T21:22:27.532Z,80.08
2023-05-19T21:24:54.760Z,80.17
2023-05-19T21:27:21.969Z,80.33
2023-05-19T21:29:53.368Z,80.10
2023-05-19T21:32:21.116Z,80.34
2023-05-19T21:34:48.065Z,80.46
2023-05-19T21:37:17.353Z,80.24
2023-05-19T21:39:44.671Z,80.67
2023-05-19T21:42:13.820Z,80.61
2023-05-19T21:44:40.870Z,80.63
2023-05-19T21:47:07.679Z,80.77
2023-05-19T21:49:34.704Z,80.87
2023-05-19T21:52:01.505Z,80.82
2023-05-19T21:54:28.323Z,80.75
2023-05-19T21:56:55.169Z,81.06
2023-05-19T21:59:24.746Z,81.10
2023-05-19T22:01:52.373Z,81.34
2023-05-19T22:04:21.260Z,81.52
2023-05-19T22:06:48.102Z,81.48
2023-05-19T22:09:14.886Z,81.22
2023-05-19T22:11:41.836Z,81.28
2023-05-19T22:14:08.725Z,81.39
2023-05-19T22:16:35.583Z,81.77
2023-05-19T22:19:02.613Z,81.49
2023-05-19T22:21:29.515Z,81.67
2023-05-19T22:23:56.279Z,81.65
2023-05-19T22:26:23.153Z,81.49
2023-05-19T22:28:50.460Z,81.88
2023-05-19T22:31:17.804Z,81.92
2023-05-19T22:33:44.733Z,81.86
2023-05-19T22:36:11.738Z,81.84
2023-05-19T22:38:38.574Z,82.00
2023-05-19T22:41:05.610Z,81.99
2023-05-19T22:43:32.506Z,82.07
2023-05-19T22:45:59.391Z,81.91
2023-05-19T22:48:26.411Z,81.59
2023-05-19T22:50:53.326Z,81.43
2023-05-19T22:53:20.150Z,81.20
2023-05-19T22:55:47.116Z,81.42
2023-05-19T22:58:13.867Z,81.58
2023-05-19T23:00:40.722Z,81.55
2023-05-19T23:03:07.707Z,81.94
2023-05-19T23:05:34.840Z,81.82
2023-05-19T23:08:02.177Z,81.79
2023-05-19T23:10:29.152Z,81.28
2023-05-19T23:12:55.919Z,81.44
2023-05-19T23:15:22.701Z,81.31
2023-05-19T23:17:49.589Z,81.53
2023-05-19T23:20:16.478Z,81.69
2023-05-19T23:22:43.265Z,81.76
2023-05-19T23:25:10.164Z,81.92
2023-05-19T23:27:36.999Z,81.67
2023-05-19T23:30:04.494Z,81.45
2023-05-19T23:32:31.398Z,81.34
2023-05-19T23:34:58.151Z,80.99
2023-05-19T23:37:24.939Z,81.29
2023-05-19T23:39:51.851Z,81.27
2023-05-19T23:42:18.644Z,81.29
2023-05-19T23:44:45.630Z,81.14
2023-05-19T23:47:12.615Z,81.17
2023-05-19T23:49:39.380Z,81.21
2023-05-19T23:52:06.708Z,81.28
2023-05-19T23:54:33.510Z,81.27
2023-05-19T23:57:02.189Z,81.25
2023-05-19T23:59:28.975Z,81.35
